createdAt,value
2023-03-25T00:01:25.718Z,9.70
2023-03-25T00:03:54.177Z,9.80
2023-03-25T00:06:21.870Z,9.70
2023-03-25T00:08:49.889Z,9.70
2023-03-25T00:11:17.666Z,9.60
2023-03-25T00:13:45.452Z,9.60
2023-03-25T00:16:13.158Z,9.60
2023-03-25T00:18:41.609Z,9.70
2023-03-25T00:21:12.883Z,9.70
2023-03-25T00:23:42.530Z,9.70
2023-03-25T00:26:11.190Z,9.60
2023-03-25T00:28:40.403Z,9.60
2023-03-25T00:31:16.002Z,9.60
2023-03-25T00:33:43.915Z,9.70
2023-03-25T00:36:18.248Z,9.60
2023-03-25T00:38:50.254Z,9.60
2023-03-25T00:41:27.928Z,9.70
2023-03-25T00:44:02.167Z,9.60
2023-03-25T00:46:34.284Z,9.60
2023-03-25T00:49:02.358Z,9.60
2023-03-25T00:51:31.589Z,9.60
2023-03-25T00:54:00.942Z,9.60
2023-03-25T00:56:31.608Z,9.60
2023-03-25T00:58:59.454Z,9.60
2023-03-25T01:01:30.163Z,9.60
2023-03-25T01:04:00.592Z,9.70
2023-03-25T01:06:37.043Z,9.60
2023-03-25T01:09:09.767Z,9.70
2023-03-25T01:11:38.757Z,9.60
2023-03-25T01:14:16.587Z,9.70
2023-03-25T01:16:45.749Z,9.60
2023-03-25T01:19:15.218Z,9.60
2023-03-25T01:21:45.398Z,9.60
2023-03-25T01:24:15.789Z,9.60
2023-03-25T01:26:48.337Z,9.50
2023-03-25T01:29:21.715Z,9.60
2023-03-25T01:31:56.569Z,9.50
2023-03-25T01:34:26.399Z,9.50
2023-03-25T01:36:55.763Z,9.50
2023-03-25T01:39:24.796Z,9.50
2023-03-25T01:41:55.423Z,9.40
2023-03-25T01:44:24.306Z,9.50
2023-03-25T01:46:56.375Z,9.50
2023-03-25T01:49:44.650Z,9.50
2023-03-25T01:52:25.624Z,9.50
2023-03-25T01:54:58.918Z,9.40
2023-03-25T01:57:28.084Z,9.50
2023-03-25T01:59:56.628Z,9.40
2023-03-25T02:02:34.972Z,9.40
2023-03-25T02:05:26.177Z,9.40
2023-03-25T02:07:58.081Z,9.30
2023-03-25T02:10:26.168Z,9.30
2023-03-25T02:12:54.013Z,9.40
2023-03-25T02:15:22.674Z,9.40
2023-03-25T02:19:20.021Z,9.40
2023-03-25T02:22:38.052Z,9.50
2023-03-25T02:25:51.945Z,9.50
2023-03-25T02:29:17.652Z,9.50
2023-03-25T02:32:16.450Z,9.50
2023-03-25T02:35:59.464Z,9.50
2023-03-25T02:39:20.026Z,9.50
2023-03-25T02:42:18.275Z,9.60
2023-03-25T02:45:16.111Z,9.50
2023-03-25T02:48:01.772Z,9.50
2023-03-25T02:50:43.927Z,9.40
2023-03-25T02:53:34.433Z,9.40
2023-03-25T02:56:12.415Z,9.30
2023-03-25T02:58:44.455Z,9.30
2023-03-25T03:01:15.204Z,9.30
2023-03-25T03:03:43.885Z,9.40
2023-03-25T03:06:19.473Z,9.40
2023-03-25T03:08:50.410Z,9.40
2023-03-25T03:12:11.382Z,9.40
2023-03-25T03:15:33.783Z,9.40
2023-03-25T03:18:44.906Z,9.40
2023-03-25T03:21:33.147Z,9.30
2023-03-25T03:24:38.626Z,9.30
2023-03-25T03:27:50.218Z,9.30
2023-03-25T03:30:58.633Z,9.30
2023-03-25T03:33:57.786Z,9.30
2023-03-25T03:36:41.799Z,9.30
2023-03-25T03:39:26.659Z,9.30
2023-03-25T03:42:12.388Z,9.20
2023-03-25T03:44:50.249Z,9.20
2023-03-25T03:47:31.470Z,9.20
2023-03-25T03:50:20.390Z,9.20
2023-03-25T03:53:10.888Z,9.20
2023-03-25T03:56:03.883Z,9.20
2023-03-25T03:58:43.181Z,9.20
2023-03-25T04:01:47.879Z,9.20
2023-03-25T04:04:27.279Z,9.20
2023-03-25T04:07:28.128Z,9.20
2023-03-25T04:10:19.062Z,9.10
2023-03-25T04:12:55.005Z,9.10
2023-03-25T04:15:23.013Z,9.10
2023-03-25T04:17:50.880Z,9.00
2023-03-25T04:20:30.028Z,9.00
2023-03-25T04:22:57.721Z,9.00
2023-03-25T04:25:25.780Z,9.00
2023-03-25T04:27:59.028Z,8.90
2023-03-25T04:30:29.872Z,9.00
2023-03-25T04:32:57.766Z,9.00
2023-03-25T04:35:26.051Z,8.90
2023-03-25T04:37:54.757Z,8.90
2023-03-25T04:40:22.499Z,8.80
2023-03-25T04:42:50.211Z,8.80
2023-03-25T04:45:17.960Z,8.80
2023-03-25T04:47:49.950Z,8.80
2023-03-25T04:50:30.110Z,8.90
2023-03-25T04:53:00.559Z,8.90
2023-03-25T04:55:30.032Z,8.80
2023-03-25T04:57:58.019Z,8.80
2023-03-25T05:00:27.880Z,8.70
2023-03-25T05:02:56.962Z,8.80
2023-03-25T05:05:26.482Z,8.80
2023-03-25T05:07:58.455Z,8.90
2023-03-25T05:10:30.842Z,8.90
2023-03-25T05:13:08.415Z,8.80
2023-03-25T05:15:41.213Z,8.70
2023-03-25T05:18:17.577Z,8.50
2023-03-25T05:20:51.159Z,8.50
2023-03-25T05:23:19.851Z,8.50
2023-03-25T05:25:51.830Z,8.40
2023-03-25T05:28:20.255Z,8.40
2023-03-25T05:30:48.836Z,8.50
2023-03-25T05:33:19.209Z,8.60
2023-03-25T05:35:47.483Z,8.70
2023-03-25T05:38:18.875Z,8.80
2023-03-25T05:40:49.261Z,8.80
2023-03-25T05:43:22.840Z,9.00
2023-03-25T05:45:50.828Z,9.00
2023-03-25T05:48:19.058Z,9.00
2023-03-25T05:50:46.955Z,9.00
2023-03-25T05:53:16.570Z,9.00
2023-03-25T05:55:44.819Z,9.10
2023-03-25T05:58:12.730Z,9.10
2023-03-25T06:00:40.664Z,9.10
2023-03-25T06:03:08.857Z,9.10
2023-03-25T06:05:41.645Z,9.20
2023-03-25T06:08:09.762Z,9.10
2023-03-25T06:10:37.662Z,9.20
2023-03-25T06:13:05.863Z,9.20
2023-03-25T06:15:39.313Z,9.30
2023-03-25T06:18:07.623Z,9.20
2023-03-25T06:20:35.447Z,9.30
2023-03-25T06:23:03.459Z,9.30
2023-03-25T06:25:31.440Z,9.40
2023-03-25T06:28:03.757Z,9.40
2023-03-25T06:30:31.782Z,9.40
2023-03-25T06:33:03.260Z,9.40
2023-03-25T06:35:31.571Z,9.40
2023-03-25T06:37:59.512Z,9.40
2023-03-25T06:40:33.048Z,9.30
2023-03-25T06:43:04.126Z,9.40
2023-03-25T06:45:34.848Z,9.50
2023-03-25T06:48:15.691Z,9.40
2023-03-25T06:50:43.831Z,9.40
2023-03-25T06:53:11.867Z,9.50
2023-03-25T06:55:41.389Z,9.60
2023-03-25T06:58:09.023Z,9.70
2023-03-25T07:00:37.307Z,9.90
2023-03-25T07:03:05.417Z,10.10
2023-03-25T07:05:33.206Z,10.10
2023-03-25T07:08:01.322Z,10.10
2023-03-25T07:10:31.075Z,10.00
2023-03-25T07:12:58.736Z,9.90
2023-03-25T07:15:26.455Z,9.80
2023-03-25T07:17:54.129Z,9.70
2023-03-25T07:20:21.899Z,9.70
2023-03-25T07:22:49.917Z,9.80
2023-03-25T07:25:17.919Z,10.10
2023-03-25T07:27:45.650Z,10.20
2023-03-25T07:30:18.762Z,10.30
2023-03-25T07:32:47.042Z,10.30
2023-03-25T07:35:15.470Z,10.20
2023-03-25T07:37:43.142Z,10.00
2023-03-25T07:40:12.223Z,10.00
2023-03-25T07:42:39.900Z,9.90
2023-03-25T07:45:22.297Z,9.80
2023-03-25T07:47:53.347Z,9.70
2023-03-25T07:50:26.047Z,9.60
2023-03-25T07:52:55.509Z,9.60
2023-03-25T07:55:23.469Z,9.50
2023-03-25T07:57:51.524Z,9.60
2023-03-25T08:00:20.190Z,9.50
2023-03-25T08:02:47.971Z,9.70
2023-03-25T08:05:21.678Z,9.80
2023-03-25T08:07:53.193Z,9.80
2023-03-25T08:10:22.368Z,10.00
2023-03-25T08:12:54.007Z,10.20
2023-03-25T08:15:24.973Z,10.20
2023-03-25T08:17:53.116Z,10.20
2023-03-25T08:20:22.547Z,10.30
2023-03-25T08:22:51.436Z,10.30
2023-03-25T08:25:19.512Z,10.20
2023-03-25T08:27:47.440Z,10.30
2023-03-25T08:30:17.347Z,10.20
2023-03-25T08:32:54.619Z,10.20
2023-03-25T08:35:25.669Z,10.10
2023-03-25T08:37:54.017Z,10.10
2023-03-25T08:40:21.965Z,10.00
2023-03-25T08:42:50.172Z,10.30
2023-03-25T08:45:18.201Z,10.40
2023-03-25T08:47:46.380Z,10.70
2023-03-25T08:50:14.026Z,10.80
2023-03-25T08:52:42.462Z,10.90
2023-03-25T08:55:12.534Z,11.10
2023-03-25T08:57:42.649Z,10.80
2023-03-25T09:00:16.929Z,10.50
2023-03-25T09:02:45.195Z,10.30
2023-03-25T09:05:16.129Z,10.30
2023-03-25T09:07:44.483Z,10.30
2023-03-25T09:10:13.382Z,10.10
2023-03-25T09:12:42.542Z,10.20
2023-03-25T09:15:12.726Z,10.20
2023-03-25T09:17:43.086Z,10.20
2023-03-25T09:20:12.149Z,10.20
2023-03-25T09:22:41.186Z,10.20
2023-03-25T09:25:09.802Z,10.40
2023-03-25T09:27:38.268Z,10.80
2023-03-25T09:30:09.369Z,11.20
2023-03-25T09:32:37.547Z,11.30
2023-03-25T09:35:06.557Z,11.40
2023-03-25T09:37:34.779Z,11.20
2023-03-25T09:40:04.099Z,11.10
2023-03-25T09:43:12.683Z,10.90
2023-03-25T09:45:48.402Z,10.60
2023-03-25T09:48:41.856Z,10.10
2023-03-25T09:51:36.764Z,9.90
2023-03-25T09:54:35.907Z,9.60
2023-03-25T09:57:16.644Z,9.60
2023-03-25T09:59:56.867Z,9.80
2023-03-25T10:03:16.143Z,10.10
2023-03-25T10:06:12.344Z,10.00
2023-03-25T10:09:39.650Z,9.80
2023-03-25T10:12:29.892Z,9.50
2023-03-25T10:15:49.689Z,9.10
2023-03-25T10:18:59.741Z,9.00
2023-03-25T10:22:04.020Z,8.90
2023-03-25T10:24:57.420Z,9.20
2023-03-25T10:27:43.026Z,9.60
2023-03-25T10:30:43.178Z,9.70
2023-03-25T10:33:51.757Z,10.00
2023-03-25T10:36:28.534Z,10.50
2023-03-25T10:38:56.577Z,10.70
2023-03-25T10:41:39.369Z,10.50
2023-03-25T10:44:12.798Z,10.30
2023-03-25T10:46:51.676Z,10.20
2023-03-25T10:49:27.426Z,10.10
2023-03-25T10:52:00.151Z,10.00
2023-03-25T10:54:41.591Z,9.70
2023-03-25T10:57:24.910Z,9.80
2023-03-25T11:00:06.669Z,10.00
2023-03-25T11:02:35.132Z,9.40
2023-03-25T11:05:09.726Z,9.20
2023-03-25T11:07:50.081Z,9.30
2023-03-25T11:10:35.315Z,9.40
2023-03-25T11:13:08.603Z,9.40
2023-03-25T11:15:41.113Z,9.70
2023-03-25T11:18:44.519Z,9.80
2023-03-25T11:21:15.818Z,10.00
2023-03-25T11:23:51.444Z,10.00
2023-03-25T11:26:38.427Z,10.00
2023-03-25T11:29:19.747Z,10.10
2023-03-25T11:32:16.879Z,10.00
2023-03-25T11:34:50.637Z,9.70
2023-03-25T11:37:24.564Z,9.90
2023-03-25T11:39:56.201Z,10.50
2023-03-25T11:42:43.007Z,10.80
2023-03-25T11:45:35.160Z,11.10
2023-03-25T11:48:22.492Z,11.30
2023-03-25T11:51:01.901Z,11.60
2023-03-25T11:53:33.976Z,11.50
2023-03-25T11:56:11.872Z,11.40
2023-03-25T11:58:40.824Z,11.10
2023-03-25T12:02:01.854Z,11.30
2023-03-25T12:04:30.722Z,11.40
2023-03-25T12:07:15.553Z,11.40
2023-03-25T12:09:59.450Z,11.40
2023-03-25T12:13:13.529Z,11.20
2023-03-25T12:16:08.763Z,11.40
2023-03-25T12:19:13.567Z,11.30
2023-03-25T12:22:04.276Z,11.50
2023-03-25T12:25:34.901Z,11.40
2023-03-25T12:28:30.774Z,11.80
2023-03-25T12:32:03.626Z,12.10
2023-03-25T12:35:11.025Z,12.40
2023-03-25T12:38:28.645Z,12.50
2023-03-25T12:41:26.963Z,12.40
2023-03-25T12:44:34.445Z,12.20
2023-03-25T12:47:49.132Z,12.40
2023-03-25T12:50:52.449Z,12.10
2023-03-25T12:54:09.019Z,12.30
2023-03-25T12:56:50.297Z,12.20
2023-03-25T13:00:01.431Z,12.30
2023-03-25T13:03:17.111Z,12.40
2023-03-25T13:06:23.862Z,12.40
2023-03-25T13:09:12.196Z,12.40
2023-03-25T13:12:54.865Z,12.30
2023-03-25T13:15:42.015Z,12.50
2023-03-25T13:18:35.793Z,12.40
2023-03-25T13:21:27.269Z,12.20
2023-03-25T13:24:40.781Z,12.40
2023-03-25T13:27:14.512Z,12.80
2023-03-25T13:29:57.827Z,12.70
2023-03-25T13:32:51.144Z,12.60
2023-03-25T13:35:54.052Z,12.60
2023-03-25T13:38:43.140Z,12.60
2023-03-25T13:41:48.153Z,12.40
2023-03-25T13:44:31.683Z,12.20
2023-03-25T13:47:44.001Z,12.30
2023-03-25T13:50:33.964Z,11.90
2023-03-25T13:53:37.741Z,11.50
2023-03-25T13:56:18.358Z,11.20
2023-03-25T13:58:59.907Z,11.30
2023-03-25T14:02:36.108Z,11.20
2023-03-25T14:05:48.076Z,10.80
2023-03-25T14:08:52.346Z,10.90
2023-03-25T14:11:57.397Z,11.00
2023-03-25T14:14:27.669Z,10.90
2023-03-25T14:17:01.472Z,11.20
2023-03-25T14:19:49.063Z,11.20
2023-03-25T14:22:33.325Z,11.00
2023-03-25T14:25:02.363Z,11.20
2023-03-25T14:27:37.590Z,10.90
2023-03-25T14:30:23.318Z,11.20
2023-03-25T14:32:56.445Z,11.30
2023-03-25T14:35:38.870Z,11.60
2023-03-25T14:38:09.900Z,11.60
2023-03-25T14:41:01.326Z,11.70
2023-03-25T14:43:47.732Z,11.50
2023-03-25T14:46:26.273Z,11.40
2023-03-25T14:49:06.434Z,11.30
2023-03-25T14:51:50.808Z,11.60
2023-03-25T14:54:36.099Z,11.60
2023-03-25T14:57:27.795Z,11.30
2023-03-25T15:00:14.094Z,11.10
2023-03-25T15:02:52.225Z,10.90
2023-03-25T15:05:29.789Z,10.60
2023-03-25T15:08:09.971Z,10.70
2023-03-25T15:10:50.183Z,10.70
2023-03-25T15:13:58.529Z,10.40
2023-03-25T15:17:07.514Z,10.30
2023-03-25T15:20:23.102Z,10.50
2023-03-25T15:23:18.933Z,10.70
2023-03-25T15:25:54.901Z,10.90
2023-03-25T15:29:22.093Z,11.00
2023-03-25T15:32:43.533Z,11.00
2023-03-25T15:36:08.077Z,11.10
2023-03-25T15:39:13.549Z,11.20
2023-03-25T15:42:40.234Z,11.20
2023-03-25T15:46:07.187Z,11.30
2023-03-25T15:49:27.943Z,11.40
2023-03-25T15:52:46.329Z,11.50
2023-03-25T15:55:50.679Z,11.80
2023-03-25T15:59:38.868Z,11.60
2023-03-25T16:02:46.086Z,11.50
2023-03-25T16:05:18.772Z,11.30
2023-03-25T16:07:48.429Z,11.30
2023-03-25T16:10:36.524Z,11.10
2023-03-25T16:13:25.300Z,11.10
2023-03-25T16:15:59.886Z,11.10
2023-03-25T16:18:28.489Z,11.10
2023-03-25T16:21:03.858Z,10.90
2023-03-25T16:23:31.995Z,10.70
2023-03-25T16:25:59.866Z,10.70
2023-03-25T16:28:39.234Z,10.80
2023-03-25T16:31:27.862Z,10.90
2023-03-25T16:34:00.561Z,10.90
2023-03-25T16:36:30.220Z,10.80
2023-03-25T16:38:58.826Z,10.90
2023-03-25T16:41:27.232Z,10.90
2023-03-25T16:43:58.565Z,10.90
2023-03-25T16:46:28.327Z,10.70
2023-03-25T16:48:58.538Z,10.60
2023-03-25T16:51:37.936Z,10.40
2023-03-25T16:54:34.835Z,10.40
2023-03-25T16:57:08.951Z,10.20
2023-03-25T16:59:38.871Z,10.20
2023-03-25T17:02:43.585Z,10.20
2023-03-25T17:05:25.659Z,10.20
2023-03-25T17:08:08.638Z,10.20
2023-03-25T17:11:02.645Z,10.30
2023-03-25T17:13:52.382Z,10.30
2023-03-25T17:16:29.123Z,10.20
2023-03-25T17:18:59.609Z,10.20
2023-03-25T17:21:34.895Z,10.30
2023-03-25T17:24:24.835Z,10.40
2023-03-25T17:27:16.630Z,10.40
2023-03-25T17:30:00.753Z,10.50
2023-03-25T17:32:28.876Z,10.50
2023-03-25T17:35:06.593Z,10.40
2023-03-25T17:37:35.101Z,10.40
2023-03-25T17:40:11.720Z,10.40
2023-03-25T17:42:41.726Z,10.40
2023-03-25T17:45:17.432Z,10.50
2023-03-25T17:47:46.824Z,10.50
2023-03-25T17:50:28.072Z,10.50
2023-03-25T17:52:57.595Z,10.50
2023-03-25T17:55:25.352Z,10.50
2023-03-25T17:57:56.279Z,10.40
2023-03-25T18:00:24.953Z,10.40
2023-03-25T18:02:52.795Z,10.40
2023-03-25T18:05:20.804Z,10.40
2023-03-25T18:07:48.754Z,10.40
2023-03-25T18:10:23.051Z,10.40
2023-03-25T18:12:51.426Z,10.40
2023-03-25T18:15:19.343Z,10.40
2023-03-25T18:17:47.360Z,10.40
2023-03-25T18:20:34.313Z,10.40
2023-03-25T18:23:03.029Z,10.40
2023-03-25T18:25:31.878Z,10.40
2023-03-25T18:28:00.667Z,10.50
2023-03-25T18:30:51.972Z,10.50
2023-03-25T18:33:21.314Z,10.50
2023-03-25T18:35:52.586Z,10.50
2023-03-25T18:38:28.039Z,10.30
2023-03-25T18:40:57.484Z,10.30
2023-03-25T18:43:25.482Z,10.30
2023-03-25T18:45:56.029Z,10.20
2023-03-25T18:48:23.879Z,10.30
2023-03-25T18:51:01.222Z,10.30
2023-03-25T18:53:30.608Z,10.30
2023-03-25T18:56:02.638Z,10.20
2023-03-25T18:58:36.673Z,10.20
2023-03-25T19:01:07.860Z,10.20
2023-03-25T19:03:39.305Z,10.20
2023-03-25T19:06:14.374Z,10.20
2023-03-25T19:08:46.178Z,10.20
2023-03-25T19:11:21.749Z,10.20
2023-03-25T19:13:52.888Z,10.30
2023-03-25T19:16:22.097Z,10.30
2023-03-25T19:18:50.004Z,10.20
2023-03-25T19:21:20.414Z,10.20
2023-03-25T19:23:48.500Z,10.20
2023-03-25T19:26:16.501Z,10.20
2023-03-25T19:28:44.719Z,10.10
2023-03-25T19:31:16.565Z,9.90
2023-03-25T19:33:45.145Z,9.60
2023-03-25T19:36:19.122Z,9.40
2023-03-25T19:38:48.084Z,9.30
2023-03-25T19:41:16.689Z,9.20
2023-03-25T19:43:45.343Z,9.10
2023-03-25T19:46:13.239Z,9.00
2023-03-25T19:48:41.219Z,9.00
2023-03-25T19:51:09.172Z,9.00
2023-03-25T19:53:37.371Z,9.00
2023-03-25T19:56:06.569Z,9.10
2023-03-25T19:58:35.311Z,9.00
2023-03-25T20:01:03.560Z,9.00
2023-03-25T20:03:32.894Z,8.90
2023-03-25T20:06:03.967Z,8.80
2023-03-25T20:08:32.243Z,8.70
2023-03-25T20:11:01.294Z,8.60
2023-03-25T20:13:29.641Z,8.60
2023-03-25T20:15:57.626Z,8.40
2023-03-25T20:18:25.561Z,8.30
2023-03-25T20:20:53.647Z,8.30
2023-03-25T20:23:21.827Z,8.30
2023-03-25T20:25:52.484Z,8.30
2023-03-25T20:28:20.642Z,8.40
2023-03-25T20:30:48.612Z,8.40
2023-03-25T20:33:16.943Z,8.30
2023-03-25T20:35:45.901Z,8.20
2023-03-25T20:38:14.493Z,8.20
2023-03-25T20:40:45.055Z,8.20
2023-03-25T20:43:14.845Z,8.30
2023-03-25T20:45:43.882Z,8.30
2023-03-25T20:48:12.089Z,8.30
2023-03-25T20:50:40.483Z,8.30
2023-03-25T20:53:09.174Z,8.40
2023-03-25T20:55:37.544Z,8.40
2023-03-25T20:58:06.444Z,8.30
2023-03-25T21:00:34.580Z,8.20
2023-03-25T21:03:02.355Z,8.20
2023-03-25T21:05:30.159Z,8.10
2023-03-25T21:07:57.981Z,8.10
2023-03-25T21:10:27.308Z,8.10
2023-03-25T21:12:55.240Z,8.20
2023-03-25T21:15:23.331Z,8.20
2023-03-25T21:17:50.988Z,8.10
2023-03-25T21:20:22.149Z,8.20
2023-03-25T21:22:51.130Z,8.10
2023-03-25T21:25:18.984Z,8.20
2023-03-25T21:27:47.070Z,8.20
2023-03-25T21:30:16.167Z,8.20
2023-03-25T21:32:44.144Z,8.20
2023-03-25T21:35:12.110Z,8.10
2023-03-25T21:37:40.409Z,8.00
2023-03-25T21:40:12.419Z,8.00
2023-03-25T21:42:47.324Z,8.00
2023-03-25T21:45:18.709Z,7.90
2023-03-25T21:47:55.105Z,8.00
2023-03-25T21:50:22.994Z,8.00
2023-03-25T21:52:50.913Z,7.90
2023-03-25T21:55:19.702Z,7.90
2023-03-25T21:57:47.964Z,7.90
2023-03-25T22:00:19.743Z,7.90
2023-03-25T22:02:48.723Z,7.90
2023-03-25T22:05:18.131Z,7.90
2023-03-25T22:07:46.526Z,7.90
2023-03-25T22:10:14.451Z,7.90
2023-03-25T22:12:42.400Z,7.90
2023-03-25T22:15:11.652Z,7.90
2023-03-25T22:17:39.592Z,8.00
2023-03-25T22:20:09.068Z,8.00
2023-03-25T22:22:37.242Z,8.00
2023-03-25T22:25:08.361Z,7.90
2023-03-25T22:27:37.535Z,7.90
2023-03-25T22:30:11.806Z,7.90
2023-03-25T22:32:39.875Z,7.90
2023-03-25T22:35:08.994Z,7.90
2023-03-25T22:37:37.115Z,7.90
2023-03-25T22:40:08.747Z,7.90
2023-03-25T22:42:36.554Z,7.90
2023-03-25T22:45:06.177Z,7.80
2023-03-25T22:47:34.090Z,7.80
2023-03-25T22:50:02.390Z,7.70
2023-03-25T22:52:30.389Z,7.80
2023-03-25T22:54:58.894Z,7.70
2023-03-25T22:57:27.016Z,7.70
2023-03-25T22:59:55.010Z,7.70
2023-03-25T23:02:22.960Z,7.70
2023-03-25T23:04:51.092Z,7.70
2023-03-25T23:07:18.943Z,7.70
2023-03-25T23:09:47.812Z,7.70
2023-03-25T23:12:24.158Z,7.70
2023-03-25T23:14:57.409Z,7.80
2023-03-25T23:17:27.502Z,7.90
2023-03-25T23:19:56.053Z,7.90
2023-03-25T23:22:25.141Z,8.00
2023-03-25T23:24:53.427Z,8.00
2023-03-25T23:27:22.573Z,8.00
2023-03-25T23:29:50.558Z,8.10
2023-03-25T23:32:18.465Z,8.10
2023-03-25T23:34:46.611Z,8.10
2023-03-25T23:37:15.365Z,8.00
2023-03-25T23:39:46.394Z,7.90
2023-03-25T23:42:14.474Z,7.90
2023-03-25T23:44:44.002Z,7.90
2023-03-25T23:47:12.461Z,7.90
2023-03-25T23:49:40.415Z,7.90
2023-03-25T23:52:11.518Z,8.00
2023-03-25T23:54:40.916Z,8.00
2023-03-25T23:57:08.955Z,8.10
2023-03-25T23:59:36.833Z,8.10
